createdAt,value
2023-08-22T00:00:00.056Z,1020.21
2023-08-22T00:00:09.446Z,1020.21
2023-08-22T00:00:18.867Z,1020.20
2023-08-22T00:00:28.264Z,1020.18
2023-08-22T00:00:47.060Z,1020.19
2023-08-22T00:00:56.537Z,1020.16
2023-08-22T00:01:05.885Z,1020.24
2023-08-22T00:01:15.458Z,1020.17
2023-08-22T00:01:24.766Z,1020.11
2023-08-22T00:01:34.228Z,1020.21
2023-08-22T00:01:52.982Z,1020.19
2023-08-22T00:02:02.436Z,1020.13
2023-08-22T00:02:11.855Z,1020.13
2023-08-22T00:02:21.251Z,1020.18
2023-08-22T00:02:30.659Z,1020.15
2023-08-22T00:02:40.043Z,1020.21
2023-08-22T00:02:58.908Z,1020.21
2023-08-22T00:03:08.326Z,1020.15
2023-08-22T00:03:17.877Z,1020.22
2023-08-22T00:03:27.240Z,1020.22
2023-08-22T00:03:36.671Z,1020.21
2023-08-22T00:03:46.058Z,1020.22
2023-08-22T00:04:04.842Z,1020.26
2023-08-22T00:04:14.263Z,1020.19
2023-08-22T00:04:23.694Z,1020.21
2023-08-22T00:04:33.047Z,1020.23
2023-08-22T00:04:42.459Z,1020.21
2023-08-22T00:04:51.858Z,1020.24
2023-08-22T00:05:10.669Z,1020.25
2023-08-22T00:05:20.057Z,1020.27
2023-08-22T00:05:29.472Z,1020.19
2023-08-22T00:05:38.845Z,1020.21
2023-08-22T00:05:48.256Z,1020.19
2023-08-22T00:05:57.652Z,1020.18
2023-08-22T00:06:16.521Z,1020.17
2023-08-22T00:06:25.910Z,1020.18
2023-08-22T00:06:35.379Z,1020.17
2023-08-22T00:06:44.784Z,1020.16
2023-08-22T00:06:54.203Z,1020.18
2023-08-22T00:07:03.589Z,1020.18
2023-08-22T00:07:22.404Z,1020.16
2023-08-22T00:07:31.820Z,1020.13
2023-08-22T00:07:41.660Z,1020.09
2023-08-22T00:07:50.675Z,1020.11
2023-08-22T00:08:00.083Z,1020.16
2023-08-22T00:08:09.466Z,1020.19
2023-08-22T00:08:28.248Z,1020.19
2023-08-22T00:08:38.168Z,1020.16
2023-08-22T00:08:47.583Z,1020.15
2023-08-22T00:08:57.005Z,1020.21
2023-08-22T00:09:06.445Z,1020.14
2023-08-22T00:09:15.824Z,1020.17
2023-08-22T00:09:34.639Z,1020.18
2023-08-22T00:09:44.058Z,1020.23
2023-08-22T00:09:53.497Z,1020.19
2023-08-22T00:10:03.273Z,1020.12
2023-08-22T00:10:12.774Z,1020.15
2023-08-22T00:10:22.248Z,1020.16
2023-08-22T00:10:41.140Z,1020.13
2023-08-22T00:10:50.569Z,1020.17
2023-08-22T00:11:00.233Z,1020.13
2023-08-22T00:11:09.443Z,1020.16
2023-08-22T00:11:18.882Z,1020.18
2023-08-22T00:11:28.278Z,1020.18
2023-08-22T00:11:47.089Z,1020.16
2023-08-22T00:11:56.525Z,1020.15
2023-08-22T00:12:05.941Z,1020.17
2023-08-22T00:12:15.436Z,1020.07
2023-08-22T00:12:24.832Z,1020.11
2023-08-22T00:12:34.244Z,1020.14
2023-08-22T00:12:53.270Z,1020.14
2023-08-22T00:13:02.797Z,1020.12
2023-08-22T00:13:12.334Z,1020.11
2023-08-22T00:13:21.873Z,1020.11
2023-08-22T00:13:31.262Z,1020.12
2023-08-22T00:13:40.662Z,1020.11
2023-08-22T00:13:59.520Z,1020.13
2023-08-22T00:14:08.946Z,1020.10
2023-08-22T00:14:18.326Z,1020.14
2023-08-22T00:14:27.707Z,1020.08
2023-08-22T00:14:37.111Z,1020.06
2023-08-22T00:14:46.598Z,1020.14
2023-08-22T00:15:05.432Z,1020.04
2023-08-22T00:15:14.847Z,1020.12
2023-08-22T00:15:24.226Z,1020.03
2023-08-22T00:15:33.651Z,1020.11
2023-08-22T00:15:43.013Z,1020.05
2023-08-22T00:15:52.455Z,1020.10
2023-08-22T00:16:11.293Z,1020.07
2023-08-22T00:16:20.691Z,1020.07
2023-08-22T00:16:30.084Z,1020.06
2023-08-22T00:16:39.500Z,1020.05
2023-08-22T00:16:48.885Z,1020.06
2023-08-22T00:16:58.271Z,1020.00
2023-08-22T00:17:17.146Z,1020.11
2023-08-22T00:17:26.599Z,1020.01
2023-08-22T00:17:39.215Z,1020.05
2023-08-22T00:17:48.355Z,1020.03
2023-08-22T00:17:57.799Z,1020.05
2023-08-22T00:18:07.163Z,1020.03
2023-08-22T00:18:25.938Z,1020.06
2023-08-22T00:18:35.348Z,1020.00
2023-08-22T00:18:44.741Z,1020.06
2023-08-22T00:18:54.109Z,1020.06
2023-08-22T00:19:03.515Z,1020.00
2023-08-22T00:19:12.905Z,1020.04
2023-08-22T00:19:31.792Z,1020.05
2023-08-22T00:19:41.185Z,1020.02
2023-08-22T00:19:50.586Z,1020.03
2023-08-22T00:19:59.964Z,1020.03
2023-08-22T00:20:09.380Z,1020.06
2023-08-22T00:20:18.765Z,1020.01
2023-08-22T00:20:37.555Z,1020.02
2023-08-22T00:20:46.948Z,1020.03
2023-08-22T00:20:56.389Z,1020.08
2023-08-22T00:21:05.768Z,1020.03
2023-08-22T00:21:15.164Z,1020.02
2023-08-22T00:21:24.604Z,1020.04
2023-08-22T00:21:43.446Z,1020.10
2023-08-22T00:21:52.840Z,1020.11
2023-08-22T00:22:02.717Z,1020.06
2023-08-22T00:22:12.155Z,1020.12
2023-08-22T00:22:21.574Z,1020.01
2023-08-22T00:22:30.969Z,1020.06
2023-08-22T00:22:49.781Z,1020.08
2023-08-22T00:22:59.203Z,1020.09
2023-08-22T00:23:08.629Z,1020.09
2023-08-22T00:23:18.134Z,1020.07
2023-08-22T00:23:27.560Z,1020.07
2023-08-22T00:23:36.970Z,1019.97
2023-08-22T00:23:55.844Z,1020.01
2023-08-22T00:24:05.223Z,1020.08
2023-08-22T00:24:14.616Z,1019.96
2023-08-22T00:24:23.993Z,1020.01
2023-08-22T00:24:33.376Z,1020.01
2023-08-22T00:24:42.786Z,1020.06
2023-08-22T00:25:01.569Z,1020.12
2023-08-22T00:25:11.025Z,1020.04
2023-08-22T00:25:20.358Z,1019.98
2023-08-22T00:25:29.739Z,1020.00
2023-08-22T00:25:39.151Z,1019.99
2023-08-22T00:25:48.645Z,1020.01
2023-08-22T00:26:07.559Z,1019.95
2023-08-22T00:26:17.688Z,1019.97
2023-08-22T00:26:27.076Z,1019.95
2023-08-22T00:26:36.536Z,1019.95
2023-08-22T00:26:45.973Z,1020.00
2023-08-22T00:26:55.406Z,1019.95
2023-08-22T00:27:14.240Z,1019.95
2023-08-22T00:27:23.633Z,1019.94
2023-08-22T00:27:33.012Z,1019.96
2023-08-22T00:27:42.800Z,1019.98
2023-08-22T00:27:51.800Z,1020.00
2023-08-22T00:28:01.216Z,1019.96
2023-08-22T00:28:20.066Z,1019.96
2023-08-22T00:28:29.466Z,1019.91
2023-08-22T00:28:38.856Z,1020.01
2023-08-22T00:28:48.276Z,1019.92
2023-08-22T00:28:57.656Z,1019.91
2023-08-22T00:29:07.053Z,1020.01
2023-08-22T00:29:25.903Z,1019.95
2023-08-22T00:29:35.339Z,1019.89
2023-08-22T00:29:44.727Z,1019.98
2023-08-22T00:29:54.129Z,1019.92
2023-08-22T00:30:03.540Z,1019.98
2023-08-22T00:30:12.925Z,1019.98
2023-08-22T00:30:31.730Z,1019.92
2023-08-22T00:30:41.129Z,1019.97
2023-08-22T00:30:50.642Z,1019.96
2023-08-22T00:31:00.071Z,1019.96
2023-08-22T00:31:09.460Z,1020.00
2023-08-22T00:31:18.870Z,1019.99
2023-08-22T00:31:37.647Z,1019.96
2023-08-22T00:31:47.088Z,1020.01
2023-08-22T00:31:56.510Z,1020.01
2023-08-22T00:32:05.862Z,1019.95
2023-08-22T00:32:15.252Z,1020.03
2023-08-22T00:32:24.630Z,1019.97
2023-08-22T00:32:43.516Z,1019.97
2023-08-22T00:32:52.913Z,1020.00
2023-08-22T00:33:02.329Z,1019.99
2023-08-22T00:33:11.730Z,1020.01
2023-08-22T00:33:21.100Z,1020.04
2023-08-22T00:33:30.500Z,1020.02
2023-08-22T00:33:49.290Z,1019.96
2023-08-22T00:33:58.661Z,1019.98
2023-08-22T00:34:08.061Z,1019.93
2023-08-22T00:34:17.508Z,1020.00
2023-08-22T00:34:26.911Z,1019.97
2023-08-22T00:34:36.305Z,1019.91
2023-08-22T00:34:55.123Z,1020.01
2023-08-22T00:35:04.547Z,1020.00
2023-08-22T00:35:13.945Z,1019.94
2023-08-22T00:35:23.336Z,1019.95
2023-08-22T00:35:32.726Z,1019.95
2023-08-22T00:35:42.126Z,1019.91
2023-08-22T00:36:00.910Z,1019.98
2023-08-22T00:36:10.326Z,1019.93
2023-08-22T00:36:19.752Z,1019.95
2023-08-22T00:36:29.195Z,1019.96
2023-08-22T00:36:38.598Z,1020.03
2023-08-22T00:36:47.969Z,1019.96
2023-08-22T00:37:06.762Z,1020.00
2023-08-22T00:37:16.140Z,1019.97
2023-08-22T00:37:25.541Z,1019.94
2023-08-22T00:37:34.917Z,1020.01
2023-08-22T00:37:44.300Z,1019.98
2023-08-22T00:37:53.686Z,1019.99
2023-08-22T00:38:12.449Z,1019.98
2023-08-22T00:38:21.824Z,1019.98
2023-08-22T00:38:31.205Z,1020.01
2023-08-22T00:38:40.748Z,1020.03
2023-08-22T00:38:50.267Z,1019.98
2023-08-22T00:38:59.771Z,1020.03
2023-08-22T00:39:18.554Z,1020.05
2023-08-22T00:39:28.431Z,1020.03
2023-08-22T00:39:37.931Z,1020.01
2023-08-22T00:39:47.321Z,1020.05
2023-08-22T00:39:56.714Z,1019.99
2023-08-22T00:40:06.082Z,1020.10
2023-08-22T00:40:24.913Z,1020.04
2023-08-22T00:40:34.260Z,1019.91
2023-08-22T00:40:43.699Z,1020.01
2023-08-22T00:40:53.084Z,1020.00
2023-08-22T00:41:02.527Z,1019.97
2023-08-22T00:41:11.951Z,1020.01
2023-08-22T00:41:30.769Z,1019.93
2023-08-22T00:41:40.158Z,1019.97
2023-08-22T00:41:49.573Z,1019.96
2023-08-22T00:41:58.983Z,1019.95
2023-08-22T00:42:08.363Z,1019.95
2023-08-22T00:42:17.741Z,1019.94
2023-08-22T00:42:36.536Z,1019.88
2023-08-22T00:42:45.912Z,1019.86
2023-08-22T00:42:55.355Z,1019.91
2023-08-22T00:43:04.745Z,1019.93
2023-08-22T00:43:14.232Z,1019.94
2023-08-22T00:43:23.628Z,1019.93
2023-08-22T00:43:42.428Z,1019.93
2023-08-22T00:43:51.811Z,1019.91
2023-08-22T00:44:01.210Z,1019.96
2023-08-22T00:44:10.591Z,1019.90
2023-08-22T00:44:19.980Z,1019.90
2023-08-22T00:44:29.372Z,1019.92
2023-08-22T00:44:48.169Z,1020.00
2023-08-22T00:44:57.564Z,1019.94
2023-08-22T00:45:06.954Z,1019.98
2023-08-22T00:45:16.356Z,1019.97
2023-08-22T00:45:25.751Z,1019.88
2023-08-22T00:45:35.264Z,1019.95
2023-08-22T00:45:54.100Z,1019.94
2023-08-22T00:46:03.513Z,1019.92
2023-08-22T00:46:12.931Z,1019.98
2023-08-22T00:46:22.370Z,1020.00
2023-08-22T00:46:31.828Z,1020.01
2023-08-22T00:46:41.219Z,1019.98
2023-08-22T00:47:00.031Z,1019.95
2023-08-22T00:47:09.416Z,1019.99
2023-08-22T00:47:18.815Z,1019.97
2023-08-22T00:47:28.247Z,1019.98
2023-08-22T00:47:37.871Z,1019.96
2023-08-22T00:47:47.227Z,1019.99
2023-08-22T00:48:06.063Z,1020.01
2023-08-22T00:48:15.480Z,1019.95
2023-08-22T00:48:24.801Z,1019.92
2023-08-22T00:48:34.209Z,1019.98
2023-08-22T00:48:43.614Z,1020.02
2023-08-22T00:48:53.014Z,1019.99
2023-08-22T00:49:11.890Z,1020.08
2023-08-22T00:49:21.277Z,1020.00
2023-08-22T00:49:30.697Z,1020.09
2023-08-22T00:49:40.087Z,1019.99
2023-08-22T00:49:49.501Z,1019.98
2023-08-22T00:49:58.891Z,1020.03
2023-08-22T00:50:17.724Z,1020.07
2023-08-22T00:50:27.131Z,1020.09
2023-08-22T00:50:36.512Z,1019.98
2023-08-22T00:50:45.910Z,1020.03
2023-08-22T00:50:55.342Z,1020.03
2023-08-22T00:51:04.735Z,1020.08
2023-08-22T00:51:23.611Z,1020.02
2023-08-22T00:51:33.032Z,1020.01
2023-08-22T00:51:42.456Z,1020.02
2023-08-22T00:51:51.910Z,1020.04
2023-08-22T00:52:01.296Z,1020.09
2023-08-22T00:52:10.699Z,1020.09
2023-08-22T00:52:29.588Z,1020.06
2023-08-22T00:52:39.075Z,1020.08
2023-08-22T00:52:48.463Z,1020.09
2023-08-22T00:52:57.912Z,1020.06
2023-08-22T00:53:07.303Z,1020.06
2023-08-22T00:53:16.775Z,1020.16
2023-08-22T00:53:35.601Z,1020.08
2023-08-22T00:53:44.997Z,1020.09
2023-08-22T00:53:54.390Z,1020.07
2023-08-22T00:54:03.781Z,1020.10
2023-08-22T00:54:13.170Z,1020.06
2023-08-22T00:54:22.643Z,1020.06
2023-08-22T00:54:41.464Z,1020.06
2023-08-22T00:54:50.835Z,1020.15
2023-08-22T00:55:00.295Z,1020.15
2023-08-22T00:55:09.735Z,1020.09
2023-08-22T00:55:19.108Z,1020.08
2023-08-22T00:55:28.518Z,1020.06
2023-08-22T00:55:47.289Z,1020.10
2023-08-22T00:55:56.710Z,1020.07
2023-08-22T00:56:06.140Z,1020.04
2023-08-22T00:56:15.540Z,1020.02
2023-08-22T00:56:24.939Z,1020.10
2023-08-22T00:56:34.338Z,1020.03
2023-08-22T00:56:53.169Z,1020.02
2023-08-22T00:57:02.602Z,1020.03
2023-08-22T00:57:12.030Z,1020.00
2023-08-22T00:57:21.425Z,1020.03
2023-08-22T00:57:30.802Z,1020.05
2023-08-22T00:57:40.560Z,1019.97
2023-08-22T00:57:59.024Z,1019.97
2023-08-22T00:58:08.403Z,1019.97
2023-08-22T00:58:17.815Z,1019.97
2023-08-22T00:58:27.207Z,1019.99
2023-08-22T00:58:36.613Z,1019.96
2023-08-22T00:58:46.024Z,1019.97
2023-08-22T00:59:04.849Z,1019.93
2023-08-22T00:59:14.254Z,1019.90
2023-08-22T00:59:23.648Z,1019.95
2023-08-22T00:59:33.017Z,1019.93
2023-08-22T00:59:42.438Z,1019.87
2023-08-22T00:59:51.823Z,1019.87
2023-08-22T01:00:10.628Z,1019.81
2023-08-22T01:00:20.037Z,1019.84
2023-08-22T01:00:29.442Z,1019.91
2023-08-22T01:00:38.930Z,1019.88
2023-08-22T01:00:48.292Z,1019.88
2023-08-22T01:00:57.732Z,1019.82
2023-08-22T01:01:16.550Z,1019.81
2023-08-22T01:01:25.870Z,1019.80
2023-08-22T01:01:35.282Z,1019.80
2023-08-22T01:01:44.672Z,1019.80
2023-08-22T01:01:54.114Z,1019.82
2023-08-22T01:02:03.558Z,1019.75
2023-08-22T01:02:22.419Z,1019.85
2023-08-22T01:02:31.816Z,1019.86
2023-08-22T01:02:41.312Z,1019.84
2023-08-22T01:02:50.628Z,1019.84
2023-08-22T01:03:00.007Z,1019.82
2023-08-22T01:03:09.385Z,1019.83
2023-08-22T01:03:28.214Z,1019.83
2023-08-22T01:03:37.727Z,1019.82
2023-08-22T01:03:47.153Z,1019.83
2023-08-22T01:03:56.437Z,1019.83
2023-08-22T01:04:05.775Z,1019.81
2023-08-22T01:04:15.166Z,1019.82
2023-08-22T01:04:33.935Z,1019.83
2023-08-22T01:04:43.355Z,1019.84
2023-08-22T01:04:52.753Z,1019.79
2023-08-22T01:05:02.180Z,1019.84
2023-08-22T01:05:11.723Z,1019.83
2023-08-22T01:05:21.236Z,1019.83
2023-08-22T01:05:40.016Z,1019.82
2023-08-22T01:05:49.578Z,1019.81
2023-08-22T01:05:59.008Z,1019.80
2023-08-22T01:06:08.457Z,1019.83
2023-08-22T01:06:17.866Z,1019.82
2023-08-22T01:06:27.237Z,1019.80
2023-08-22T01:06:46.108Z,1019.88
2023-08-22T01:06:55.577Z,1019.83
2023-08-22T01:07:05.004Z,1019.81
2023-08-22T01:07:14.396Z,1019.89
2023-08-22T01:07:23.800Z,1019.82
2023-08-22T01:07:33.184Z,1019.82
2023-08-22T01:07:51.985Z,1019.83
2023-08-22T01:08:01.401Z,1019.85
2023-08-22T01:08:10.782Z,1019.88
2023-08-22T01:08:20.233Z,1019.88
2023-08-22T01:08:29.602Z,1019.85
2023-08-22T01:08:38.985Z,1019.90
2023-08-22T01:08:57.794Z,1019.89
2023-08-22T01:09:07.185Z,1019.79
2023-08-22T01:09:16.597Z,1019.87
2023-08-22T01:09:25.981Z,1019.86
2023-08-22T01:09:35.370Z,1019.84
2023-08-22T01:09:44.768Z,1019.84
2023-08-22T01:10:03.697Z,1019.88
2023-08-22T01:10:13.198Z,1019.80
2023-08-22T01:10:22.517Z,1019.87
2023-08-22T01:10:31.922Z,1019.80
2023-08-22T01:10:41.293Z,1019.78
2023-08-22T01:10:50.678Z,1019.80
2023-08-22T01:11:09.516Z,1019.81
2023-08-22T01:11:18.911Z,1019.76
2023-08-22T01:11:28.305Z,1019.80
2023-08-22T01:11:37.835Z,1019.82
2023-08-22T01:11:47.218Z,1019.82
2023-08-22T01:11:56.621Z,1019.84
2023-08-22T01:12:15.417Z,1019.80
2023-08-22T01:12:24.809Z,1019.81
2023-08-22T01:12:34.221Z,1019.78
2023-08-22T01:12:43.641Z,1019.80
2023-08-22T01:12:53.035Z,1019.79
2023-08-22T01:13:02.446Z,1019.79
2023-08-22T01:13:21.276Z,1019.75
2023-08-22T01:13:30.704Z,1019.79
2023-08-22T01:13:40.089Z,1019.77
2023-08-22T01:13:49.455Z,1019.79
2023-08-22T01:13:58.851Z,1019.88
2023-08-22T01:14:08.261Z,1019.83
2023-08-22T01:14:27.061Z,1019.85
2023-08-22T01:14:36.483Z,1019.81
2023-08-22T01:14:45.859Z,1019.82
2023-08-22T01:14:55.245Z,1019.84
2023-08-22T01:15:04.645Z,1019.82
2023-08-22T01:15:14.048Z,1019.78
2023-08-22T01:15:32.853Z,1019.85
2023-08-22T01:15:42.246Z,1019.82
2023-08-22T01:15:51.635Z,1019.86
2023-08-22T01:16:01.051Z,1019.84
2023-08-22T01:16:10.457Z,1019.89
2023-08-22T01:16:19.904Z,1019.90
2023-08-22T01:16:38.748Z,1019.92
2023-08-22T01:16:48.110Z,1019.91
2023-08-22T01:16:57.773Z,1019.87
2023-08-22T01:17:06.940Z,1019.92
2023-08-22T01:17:16.364Z,1019.89
2023-08-22T01:17:25.828Z,1019.96
2023-08-22T01:17:44.602Z,1019.98
2023-08-22T01:17:54.175Z,1020.02
2023-08-22T01:18:03.749Z,1019.90
2023-08-22T01:18:13.091Z,1019.86
2023-08-22T01:18:22.497Z,1019.97
2023-08-22T01:18:31.878Z,1019.94
2023-08-22T01:18:50.691Z,1019.96
2023-08-22T01:19:00.179Z,1020.00
2023-08-22T01:19:09.584Z,1019.94
2023-08-22T01:19:18.994Z,1019.93
2023-08-22T01:19:28.400Z,1019.93
2023-08-22T01:19:37.797Z,1019.93
2023-08-22T01:19:56.638Z,1019.95
2023-08-22T01:20:06.053Z,1019.91
2023-08-22T01:20:15.584Z,1019.91
2023-08-22T01:20:24.941Z,1019.94
2023-08-22T01:20:34.384Z,1019.90
2023-08-22T01:20:43.770Z,1019.95
2023-08-22T01:21:02.586Z,1019.95
2023-08-22T01:21:11.988Z,1019.95
2023-08-22T01:21:21.385Z,1019.80
2023-08-22T01:21:30.785Z,1019.92
2023-08-22T01:21:40.217Z,1019.86
2023-08-22T01:21:49.615Z,1019.85
2023-08-22T01:22:08.420Z,1019.92
2023-08-22T01:22:17.796Z,1019.85
2023-08-22T01:22:27.179Z,1019.88
2023-08-22T01:22:36.570Z,1019.88
2023-08-22T01:22:46.013Z,1019.83
2023-08-22T01:22:55.482Z,1019.86
2023-08-22T01:23:14.243Z,1019.84
2023-08-22T01:23:23.682Z,1019.89
2023-08-22T01:23:33.051Z,1019.86
2023-08-22T01:23:42.436Z,1019.93
2023-08-22T01:23:51.833Z,1019.93
2023-08-22T01:24:01.298Z,1019.88
2023-08-22T01:24:20.123Z,1019.84
2023-08-22T01:24:29.516Z,1019.91
2023-08-22T01:24:38.923Z,1019.86
2023-08-22T01:24:48.298Z,1019.78
2023-08-22T01:24:57.680Z,1019.91
2023-08-22T01:25:07.084Z,1019.91
2023-08-22T01:25:25.877Z,1019.95
2023-08-22T01:25:35.314Z,1019.89
2023-08-22T01:25:44.685Z,1019.92
2023-08-22T01:25:54.132Z,1019.84
2023-08-22T01:26:03.596Z,1019.93
2023-08-22T01:26:13.015Z,1019.90
2023-08-22T01:26:31.888Z,1019.84
2023-08-22T01:26:41.689Z,1019.89
2023-08-22T01:26:51.105Z,1019.85
2023-08-22T01:27:00.514Z,1019.88
2023-08-22T01:27:09.909Z,1019.85
2023-08-22T01:27:19.358Z,1019.89
2023-08-22T01:27:38.348Z,1019.89
2023-08-22T01:27:47.584Z,1019.97
2023-08-22T01:27:56.992Z,1019.88
2023-08-22T01:28:06.448Z,1019.82
2023-08-22T01:28:15.885Z,1019.93
2023-08-22T01:28:25.293Z,1019.93
2023-08-22T01:28:44.130Z,1019.92
2023-08-22T01:28:53.555Z,1019.97
2023-08-22T01:29:02.970Z,1019.85
2023-08-22T01:29:12.460Z,1019.90
2023-08-22T01:29:21.867Z,1019.88
2023-08-22T01:29:31.290Z,1019.94
2023-08-22T01:29:50.113Z,1019.94
2023-08-22T01:29:59.535Z,1019.92
2023-08-22T01:30:08.945Z,1019.96
2023-08-22T01:30:18.444Z,1019.99
2023-08-22T01:30:27.820Z,1020.00
2023-08-22T01:30:37.233Z,1019.94
2023-08-22T01:30:56.082Z,1019.91
2023-08-22T01:31:05.551Z,1019.95
2023-08-22T01:31:14.889Z,1019.92
2023-08-22T01:31:24.333Z,1019.87
2023-08-22T01:31:33.750Z,1019.92
2023-08-22T01:31:43.217Z,1019.97
2023-08-22T01:32:02.074Z,1019.88
2023-08-22T01:32:11.622Z,1019.91
2023-08-22T01:32:21.206Z,1019.94
2023-08-22T01:32:30.698Z,1019.85
2023-08-22T01:32:40.119Z,1019.91
2023-08-22T01:32:49.615Z,1019.90
2023-08-22T01:33:08.441Z,1019.95
2023-08-22T01:33:17.871Z,1019.92
2023-08-22T01:33:27.219Z,1019.90
2023-08-22T01:33:36.620Z,1019.90
2023-08-22T01:33:46.058Z,1019.86
2023-08-22T01:33:55.505Z,1019.85
2023-08-22T01:34:14.374Z,1019.90
2023-08-22T01:34:23.781Z,1019.90
2023-08-22T01:34:33.170Z,1019.87
2023-08-22T01:34:42.594Z,1019.92
2023-08-22T01:34:51.989Z,1019.92
2023-08-22T01:35:01.401Z,1019.93
2023-08-22T01:35:20.279Z,1019.88
2023-08-22T01:35:29.699Z,1019.89
2023-08-22T01:35:39.105Z,1019.85
2023-08-22T01:35:48.500Z,1019.93
2023-08-22T01:35:58.105Z,1019.88
2023-08-22T01:36:07.598Z,1019.86
2023-08-22T01:36:26.401Z,1019.88
2023-08-22T01:36:35.790Z,1019.86
2023-08-22T01:36:45.203Z,1019.86
2023-08-22T01:36:54.622Z,1019.92
2023-08-22T01:37:04.045Z,1019.88
2023-08-22T01:37:13.425Z,1019.85
2023-08-22T01:37:32.247Z,1019.87
2023-08-22T01:37:41.867Z,1019.86
2023-08-22T01:37:51.078Z,1019.86
2023-08-22T01:38:00.469Z,1019.85
2023-08-22T01:38:09.897Z,1019.82
2023-08-22T01:38:19.275Z,1019.83
2023-08-22T01:38:38.165Z,1019.85
2023-08-22T01:38:57.047Z,1019.86
2023-08-22T01:39:06.512Z,1019.74
2023-08-22T01:39:15.864Z,1019.76
2023-08-22T01:39:25.319Z,1019.81
2023-08-22T01:39:44.233Z,1019.84
2023-08-22T01:39:53.651Z,1019.72
2023-08-22T01:40:03.079Z,1019.80
2023-08-22T01:40:12.476Z,1019.82
2023-08-22T01:40:21.900Z,1019.79
2023-08-22T01:40:31.308Z,1019.87
2023-08-22T01:40:50.155Z,1019.82
2023-08-22T01:40:59.635Z,1019.83
2023-08-22T01:41:09.016Z,1019.84
2023-08-22T01:41:18.513Z,1019.89
2023-08-22T01:41:27.851Z,1019.83
2023-08-22T01:41:37.253Z,1019.87
2023-08-22T01:41:56.125Z,1019.89
2023-08-22T01:42:05.548Z,1019.88
2023-08-22T01:42:15.023Z,1019.93
2023-08-22T01:42:24.425Z,1019.91
2023-08-22T01:42:33.807Z,1019.87
2023-08-22T01:42:43.224Z,1019.93
2023-08-22T01:43:02.077Z,1019.96
2023-08-22T01:43:11.513Z,1019.94
2023-08-22T01:43:20.923Z,1019.96
2023-08-22T01:43:33.409Z,1019.98
2023-08-22T01:43:42.827Z,1019.94
2023-08-22T01:43:52.250Z,1020.02
2023-08-22T01:44:11.194Z,1020.01
2023-08-22T01:44:20.609Z,1019.96
2023-08-22T01:44:30.245Z,1019.95
2023-08-22T01:44:39.695Z,1020.01
2023-08-22T01:44:49.246Z,1019.98
2023-08-22T01:44:58.683Z,1020.05
2023-08-22T01:45:17.548Z,1019.98
2023-08-22T01:45:27.170Z,1019.97
2023-08-22T01:45:36.700Z,1020.00
2023-08-22T01:45:46.142Z,1020.00
2023-08-22T01:45:55.604Z,1020.04
2023-08-22T01:46:05.016Z,1020.05
2023-08-22T01:46:23.853Z,1019.96
2023-08-22T01:46:33.227Z,1019.98
2023-08-22T01:46:42.646Z,1019.98
2023-08-22T01:46:53.364Z,1019.98
2023-08-22T01:47:02.784Z,1019.98
2023-08-22T01:47:12.265Z,1019.96
2023-08-22T01:47:31.101Z,1019.96
2023-08-22T01:47:40.764Z,1020.03
2023-08-22T01:47:49.885Z,1020.01
2023-08-22T01:47:59.346Z,1019.96
2023-08-22T01:48:08.781Z,1019.93
2023-08-22T01:48:18.147Z,1019.94
2023-08-22T01:48:36.988Z,1019.95
2023-08-22T01:48:46.441Z,1019.94
2023-08-22T01:48:55.877Z,1019.96
2023-08-22T01:49:05.322Z,1019.93
2023-08-22T01:49:14.731Z,1019.91
2023-08-22T01:49:24.191Z,1019.90
2023-08-22T01:49:43.035Z,1019.91
2023-08-22T01:49:52.456Z,1019.97
2023-08-22T01:50:01.879Z,1019.95
2023-08-22T01:50:11.297Z,1019.91
2023-08-22T01:50:20.682Z,1019.85
2023-08-22T01:50:30.069Z,1019.85
2023-08-22T01:50:49.064Z,1019.82
2023-08-22T01:50:58.454Z,1019.82
2023-08-22T01:51:07.937Z,1019.83
2023-08-22T01:51:17.334Z,1019.82
2023-08-22T01:51:26.762Z,1019.81
2023-08-22T01:51:36.209Z,1019.84
2023-08-22T01:51:55.071Z,1019.78
2023-08-22T01:52:04.531Z,1019.80
2023-08-22T01:52:13.928Z,1019.81
2023-08-22T01:52:23.346Z,1019.75
2023-08-22T01:52:32.747Z,1019.80
2023-08-22T01:52:42.142Z,1019.74
2023-08-22T01:53:01.049Z,1019.78
2023-08-22T01:53:10.474Z,1019.69
2023-08-22T01:53:19.898Z,1019.72
2023-08-22T01:53:29.301Z,1019.77
2023-08-22T01:53:38.726Z,1019.69
2023-08-22T01:53:48.139Z,1019.68
2023-08-22T01:54:06.931Z,1019.69
2023-08-22T01:54:16.350Z,1019.76
2023-08-22T01:54:25.777Z,1019.73
2023-08-22T01:54:35.169Z,1019.70
2023-08-22T01:54:44.547Z,1019.64
2023-08-22T01:54:53.964Z,1019.74
2023-08-22T01:55:12.752Z,1019.69
2023-08-22T01:55:22.135Z,1019.66
2023-08-22T01:55:31.535Z,1019.62
2023-08-22T01:55:40.935Z,1019.64
2023-08-22T01:55:50.404Z,1019.69
2023-08-22T01:55:59.811Z,1019.71
2023-08-22T01:56:18.607Z,1019.72
2023-08-22T01:56:28.038Z,1019.68
2023-08-22T01:56:37.453Z,1019.64
2023-08-22T01:56:46.859Z,1019.64
2023-08-22T01:56:56.275Z,1019.63
2023-08-22T01:57:05.660Z,1019.59
2023-08-22T01:57:24.591Z,1019.69
2023-08-22T01:57:33.990Z,1019.67
2023-08-22T01:57:43.399Z,1019.70
2023-08-22T01:57:52.799Z,1019.67
2023-08-22T01:58:02.216Z,1019.75
2023-08-22T01:58:11.636Z,1019.68
2023-08-22T01:58:30.537Z,1019.70
2023-08-22T01:58:39.971Z,1019.71
2023-08-22T01:58:49.385Z,1019.65
2023-08-22T01:58:58.808Z,1019.71
2023-08-22T01:59:08.232Z,1019.69
2023-08-22T01:59:17.657Z,1019.77
2023-08-22T01:59:36.596Z,1019.72
2023-08-22T01:59:46.019Z,1019.70
2023-08-22T01:59:55.430Z,1019.74
2023-08-22T02:00:04.893Z,1019.75
2023-08-22T02:00:14.368Z,1019.71
2023-08-22T02:00:23.760Z,1019.70
2023-08-22T02:00:42.595Z,1019.73
2023-08-22T02:00:52.007Z,1019.78
2023-08-22T02:01:01.388Z,1019.75
2023-08-22T02:01:10.866Z,1019.78
2023-08-22T02:01:20.273Z,1019.74
2023-08-22T02:01:29.721Z,1019.68
2023-08-22T02:01:48.452Z,1019.72
2023-08-22T02:01:58.049Z,1019.70
2023-08-22T02:02:07.266Z,1019.62
2023-08-22T02:02:16.687Z,1019.74
2023-08-22T02:02:26.141Z,1019.68
2023-08-22T02:02:35.577Z,1019.73
2023-08-22T02:02:54.432Z,1019.72
2023-08-22T02:03:03.749Z,1019.70
2023-08-22T02:03:13.218Z,1019.70
2023-08-22T02:03:22.626Z,1019.68
2023-08-22T02:03:31.997Z,1019.75
2023-08-22T02:03:41.522Z,1019.67
2023-08-22T02:04:00.102Z,1019.67
2023-08-22T02:04:09.488Z,1019.66
2023-08-22T02:04:18.914Z,1019.68
2023-08-22T02:04:28.289Z,1019.67
2023-08-22T02:04:37.714Z,1019.64
2023-08-22T02:04:47.139Z,1019.61
2023-08-22T02:05:05.979Z,1019.67
2023-08-22T02:05:15.402Z,1019.70
2023-08-22T02:05:24.799Z,1019.65
2023-08-22T02:05:34.201Z,1019.67
2023-08-22T02:05:46.604Z,1019.60
2023-08-22T02:05:56.016Z,1019.63
2023-08-22T02:06:14.806Z,1019.65
2023-08-22T02:06:24.209Z,1019.63
2023-08-22T02:06:33.638Z,1019.64
2023-08-22T02:06:43.035Z,1019.59
2023-08-22T02:06:52.425Z,1019.57
2023-08-22T02:07:01.863Z,1019.68
2023-08-22T02:07:20.678Z,1019.63
2023-08-22T02:07:30.063Z,1019.56
2023-08-22T02:07:39.776Z,1019.60
2023-08-22T02:07:48.900Z,1019.66
2023-08-22T02:07:58.318Z,1019.62
2023-08-22T02:08:07.735Z,1019.68
2023-08-22T02:08:29.659Z,1019.58
2023-08-22T02:08:39.076Z,1019.63
2023-08-22T02:08:48.459Z,1019.63
2023-08-22T02:08:57.852Z,1019.65
2023-08-22T02:09:07.282Z,1019.65
2023-08-22T02:09:16.695Z,1019.62
2023-08-22T02:09:35.505Z,1019.60
2023-08-22T02:09:44.909Z,1019.67
2023-08-22T02:09:54.349Z,1019.63
2023-08-22T02:10:03.783Z,1019.67
2023-08-22T02:10:13.192Z,1019.62
2023-08-22T02:10:22.611Z,1019.69
2023-08-22T02:10:44.867Z,1019.66
2023-08-22T02:10:54.298Z,1019.65
2023-08-22T02:11:03.721Z,1019.73
2023-08-22T02:11:13.121Z,1019.72
2023-08-22T02:11:22.531Z,1019.70
2023-08-22T02:11:31.960Z,1019.71
2023-08-22T02:11:50.979Z,1019.66
2023-08-22T02:12:00.394Z,1019.72
2023-08-22T02:12:09.827Z,1019.71
2023-08-22T02:12:22.023Z,1019.67
2023-08-22T02:12:31.469Z,1019.68
2023-08-22T02:12:40.889Z,1019.64
2023-08-22T02:12:59.861Z,1019.61
2023-08-22T02:13:09.298Z,1019.62
2023-08-22T02:13:18.782Z,1019.62